This is the latest recevied weather packets stored in our database for station/object AE6EO. If no packets are shown the sender has not sent any weather packets the latest 10 day(s).
| Time | Temp. | Humidity | Pressure | Rain* | Wind** | Luminosity | Snow |
|---|---|---|---|---|---|---|---|
| 1777073715 | 20° C | 54% | 1012.6 hPa | 0 mm | - | - | - |
| 1777071916 | 20° C | 56% | 1012.5 hPa | 0 mm | - | - | - |
| 1777066515 | 18.89° C | 61% | 1013.6 hPa | 0 mm | - | - | - |
| 1777065317 | 18.89° C | 61% | 1013.7 hPa | 0 mm | - | - | - |
| 1777064737 | 18.89° C | 61% | 1013.7 hPa | 0 mm | - | - | - |
| 1777062917 | 18.33° C | 60% | 1013.9 hPa | 0 mm | - | - | - |
| 1777062319 | 18.33° C | 61% | 1014 hPa | 0 mm | - | - | - |
| 1777060516 | 17.78° C | 61% | 1014.2 hPa | 0 mm | - | - | - |
| 1777053935 | 16.67° C | 63% | 1014.9 hPa | 0 mm | - | - | - |
| 1777053317 | 17.22° C | 62% | 1014.9 hPa | 0 mm | - | - | - |
| 1777049117 | 16.11° C | 62% | 1015.2 hPa | 0 mm | - | - | - |
| 1777048516 | 16.67° C | 62% | 1015.2 hPa | 0 mm | - | - | - |
| 1777043718 | 12.78° C | 77% | 1015.3 hPa | 0 mm | - | - | - |
| 1777041317 | 11.11° C | 83% | 1015.5 hPa | 0 mm | - | - | - |
| 1777034115 | 10.56° C | 82% | 1015.3 hPa | 0 mm | - | - | - |
| 1777032335 | 10.56° C | 83% | 1015.3 hPa | 0 mm | - | - | - |
| 1777031116 | 10° C | 82% | 1015.2 hPa | 0 mm | - | - | - |
| 1777029918 | 10° C | 81% | 1015.2 hPa | 0 mm | - | - | - |
| 1777028115 | 10° C | 82% | 1015.5 hPa | 0 mm | - | - | - |
| 1777025717 | 10° C | 84% | 1015.4 hPa | 0 mm | - | - | - |
| 1777022736 | 10° C | 83% | 1015.8 hPa | 0 mm | - | - | - |
| 1777021517 | 10.56° C | 81% | 1016.1 hPa | 0 mm | - | - | - |
| 1777019737 | 11.11° C | 81% | 1016.5 hPa | 0 mm | - | - | - |
| 1777008916 | 13.33° C | 74% | 1017.3 hPa | 0 mm | - | - | - |
| 1777008335 | 13.33° C | 74% | 1017.3 hPa | 0 mm | - | - | - |
* Rain latest hour (hover to see other rain measurements)
** Current wind speed in m/s (hover to see current wind gust speed)